createdAt,value
2018-09-11T00:00:15.698Z,85.00
2018-09-11T00:02:45.117Z,84.93
2018-09-11T00:05:14.478Z,85.60
2018-09-11T00:07:43.859Z,85.29
2018-09-11T00:10:13.366Z,85.64
2018-09-11T00:12:42.798Z,85.49
2018-09-11T00:15:12.203Z,85.56
2018-09-11T00:17:41.574Z,84.81
2018-09-11T00:20:11.120Z,84.99
2018-09-11T00:22:40.519Z,84.96
2018-09-11T00:25:09.997Z,85.23
2018-09-11T00:27:39.439Z,84.94
2018-09-11T00:30:08.894Z,84.54
2018-09-11T00:32:38.273Z,85.54
2018-09-11T00:35:07.660Z,85.63
2018-09-11T00:37:37.042Z,85.58
2018-09-11T00:40:06.418Z,85.00
2018-09-11T00:42:35.903Z,85.94
2018-09-11T00:45:05.479Z,86.19
2018-09-11T00:47:34.873Z,86.02
2018-09-11T00:50:04.274Z,85.65
2018-09-11T00:52:33.655Z,85.41
2018-09-11T00:55:03.050Z,85.81
2018-09-11T00:57:32.438Z,86.60
2018-09-11T01:00:01.821Z,86.39
2018-09-11T01:02:31.194Z,85.99
2018-09-11T01:05:00.587Z,86.06
2018-09-11T01:07:29.995Z,85.85
2018-09-11T01:09:59.403Z,85.94
2018-09-11T01:12:28.753Z,86.30
2018-09-11T01:14:58.133Z,86.88
2018-09-11T01:17:27.582Z,87.44
2018-09-11T01:19:56.958Z,87.85
2018-09-11T01:22:26.978Z,87.31
2018-09-11T01:24:56.615Z,87.40
2018-09-11T01:27:26.256Z,87.62
2018-09-11T01:29:55.630Z,87.59
2018-09-11T01:32:24.994Z,87.38
2018-09-11T01:34:54.398Z,87.00
2018-09-11T01:37:23.774Z,87.31
2018-09-11T01:39:53.183Z,87.57
2018-09-11T01:42:22.562Z,88.44
2018-09-11T01:44:51.945Z,88.27
2018-09-11T01:47:21.347Z,88.54
2018-09-11T01:49:50.969Z,88.50
2018-09-11T01:52:20.350Z,88.07
2018-09-11T01:54:49.726Z,88.27
2018-09-11T01:57:19.110Z,87.96
2018-09-11T01:59:48.485Z,88.79
2018-09-11T02:02:17.873Z,88.50
2018-09-11T02:04:47.326Z,88.18
2018-09-11T02:07:16.686Z,88.51
2018-09-11T02:09:46.054Z,88.68
2018-09-11T02:12:15.442Z,87.70
2018-09-11T02:14:44.990Z,88.46
2018-09-11T02:17:14.377Z,90.02
2018-09-11T02:19:43.782Z,89.63
2018-09-11T02:22:13.162Z,89.07
2018-09-11T02:24:42.562Z,89.01
2018-09-11T02:27:11.924Z,88.63
2018-09-11T02:29:41.296Z,88.79
2018-09-11T02:32:10.674Z,89.34
2018-09-11T02:34:40.050Z,89.03
2018-09-11T02:37:09.434Z,89.00
2018-09-11T02:39:38.838Z,88.56
2018-09-11T02:42:08.239Z,88.78
2018-09-11T02:44:37.626Z,89.76
2018-09-11T02:47:07.038Z,90.78
2018-09-11T02:49:36.439Z,90.42
2018-09-11T02:52:05.918Z,89.82
2018-09-11T02:54:35.281Z,90.00
2018-09-11T02:57:04.735Z,89.94
2018-09-11T02:59:34.136Z,89.85
2018-09-11T03:02:03.506Z,89.82
2018-09-11T03:04:32.879Z,90.20
2018-09-11T03:07:02.254Z,91.00
2018-09-11T03:09:31.610Z,91.36
2018-09-11T03:12:00.990Z,90.32
2018-09-11T03:14:30.414Z,91.38
2018-09-11T03:16:59.813Z,91.02
2018-09-11T03:19:29.194Z,91.27
2018-09-11T03:21:58.626Z,91.47
2018-09-11T03:24:28.018Z,91.55
2018-09-11T03:26:57.393Z,90.77
2018-09-11T03:29:26.766Z,90.85
2018-09-11T03:31:56.131Z,92.04
2018-09-11T03:34:25.511Z,91.02
2018-09-11T03:36:54.894Z,92.13
2018-09-11T03:39:24.264Z,92.40
2018-09-11T03:41:53.656Z,93.95
2018-09-11T03:44:23.104Z,93.78
2018-09-11T03:46:52.465Z,93.79
2018-09-11T03:49:21.822Z,94.28
2018-09-11T03:51:51.226Z,93.68
2018-09-11T03:54:20.783Z,93.33
2018-09-11T03:56:50.258Z,91.97
2018-09-11T03:59:19.824Z,92.82
2018-09-11T04:01:49.166Z,92.20
2018-09-11T04:04:18.561Z,91.54
2018-09-11T04:06:47.938Z,91.54
2018-09-11T04:09:17.306Z,90.67
2018-09-11T04:11:46.697Z,91.05
2018-09-11T04:14:16.060Z,90.27
2018-09-11T04:16:45.439Z,91.02
2018-09-11T04:19:14.829Z,90.95
2018-09-11T04:21:44.202Z,90.35
2018-09-11T04:24:13.582Z,90.51
2018-09-11T04:26:43.006Z,90.63
2018-09-11T04:29:12.425Z,90.07
2018-09-11T04:31:41.786Z,90.10
2018-09-11T04:34:11.182Z,91.27
2018-09-11T04:36:40.782Z,92.66
2018-09-11T04:39:10.351Z,93.19
2018-09-11T04:41:39.712Z,93.10
2018-09-11T04:44:09.129Z,92.18
2018-09-11T04:46:38.627Z,91.44
2018-09-11T04:49:08.059Z,91.37
2018-09-11T04:51:37.425Z,90.15
2018-09-11T04:54:06.874Z,90.39
2018-09-11T04:56:36.263Z,90.37
2018-09-11T04:59:05.635Z,91.06
2018-09-11T05:01:34.990Z,91.05
2018-09-11T05:04:04.380Z,90.05
2018-09-11T05:06:33.771Z,90.40
2018-09-11T05:09:03.472Z,90.50
2018-09-11T05:11:32.976Z,91.14
2018-09-11T05:14:02.450Z,92.21
2018-09-11T05:16:31.829Z,92.32
2018-09-11T05:19:01.250Z,92.13
2018-09-11T05:21:31.922Z,91.80
2018-09-11T05:24:01.291Z,91.88
2018-09-11T05:26:30.675Z,91.72
2018-09-11T05:29:00.090Z,92.72
2018-09-11T05:31:29.455Z,92.64
2018-09-11T05:33:58.918Z,94.56
2018-09-11T05:36:28.306Z,93.55
2018-09-11T05:38:57.703Z,92.87
2018-09-11T05:41:27.054Z,92.49
2018-09-11T05:43:56.426Z,91.92
2018-09-11T05:46:25.846Z,91.92
2018-09-11T05:48:55.222Z,92.09
2018-09-11T05:51:24.663Z,91.58
2018-09-11T05:53:54.011Z,91.07
2018-09-11T05:56:23.399Z,90.69
2018-09-11T05:58:52.870Z,90.06
2018-09-11T06:01:22.294Z,89.37
2018-09-11T06:03:51.682Z,88.91
2018-09-11T06:06:21.067Z,88.36
2018-09-11T06:08:50.454Z,87.50
2018-09-11T06:11:19.827Z,87.82
2018-09-11T06:13:49.198Z,87.29
2018-09-11T06:16:18.588Z,88.01
2018-09-11T06:18:47.909Z,87.29
2018-09-11T06:21:17.305Z,86.93
2018-09-11T06:23:46.658Z,86.85
2018-09-11T06:26:16.061Z,86.77
2018-09-11T06:28:45.488Z,86.98
2018-09-11T06:31:14.846Z,87.77
2018-09-11T06:33:44.215Z,88.56
2018-09-11T06:36:13.599Z,87.42
2018-09-11T06:38:42.966Z,86.42
2018-09-11T06:41:12.425Z,86.38
2018-09-11T06:43:41.819Z,86.39
2018-09-11T06:46:16.035Z,85.52
2018-09-11T06:48:45.398Z,84.79
2018-09-11T06:51:14.782Z,84.27
2018-09-11T06:53:44.172Z,84.65
2018-09-11T06:56:13.583Z,84.12
2018-09-11T06:58:43.078Z,83.76
2018-09-11T07:01:12.443Z,83.12
2018-09-11T07:03:41.874Z,83.64
2018-09-11T07:06:11.254Z,84.06
2018-09-11T07:08:40.624Z,82.63
2018-09-11T07:11:09.992Z,82.70
2018-09-11T07:13:39.374Z,81.38
2018-09-11T07:16:08.774Z,81.18
2018-09-11T07:18:38.135Z,81.95
2018-09-11T07:21:08.767Z,81.07
2018-09-11T07:23:38.138Z,80.71
2018-09-11T07:26:08.821Z,79.93
2018-09-11T07:28:38.146Z,78.83
2018-09-11T07:31:08.754Z,79.82
2018-09-11T07:33:38.130Z,77.85
2018-09-11T07:36:08.730Z,77.82
2018-09-11T07:38:38.102Z,77.74
2018-09-11T07:41:09.570Z,76.38
2018-09-11T07:43:39.091Z,77.01
2018-09-11T07:46:08.837Z,76.50
2018-09-11T07:48:38.214Z,75.98
2018-09-11T07:51:08.865Z,76.01
2018-09-11T07:53:38.325Z,75.54
2018-09-11T07:56:08.784Z,75.74
2018-09-11T07:58:38.154Z,74.93
2018-09-11T08:01:08.766Z,73.94
2018-09-11T08:03:38.137Z,73.38
2018-09-11T08:06:08.819Z,73.65
2018-09-11T08:08:38.194Z,72.66
2018-09-11T08:11:08.802Z,72.65
2018-09-11T08:13:38.191Z,71.63
2018-09-11T08:16:08.814Z,71.61
2018-09-11T08:18:38.206Z,71.08
2018-09-11T08:21:08.830Z,70.49
2018-09-11T08:23:38.215Z,70.72
2018-09-11T08:26:08.807Z,71.12
2018-09-11T08:28:38.181Z,71.01
2018-09-11T08:31:08.798Z,68.74
2018-09-11T08:33:38.175Z,68.44
2018-09-11T08:36:08.870Z,70.04
2018-09-11T08:38:38.261Z,70.03
2018-09-11T08:41:08.974Z,70.09
2018-09-11T08:43:38.662Z,69.15
2018-09-11T08:46:09.743Z,69.42
2018-09-11T08:48:39.326Z,69.26
2018-09-11T08:51:10.690Z,69.16
2018-09-11T08:53:41.546Z,69.33
2018-09-11T08:56:11.099Z,68.55
2018-09-11T08:58:40.480Z,69.25
2018-09-11T09:01:09.834Z,68.34
2018-09-11T09:03:39.198Z,68.31
2018-09-11T09:06:08.846Z,68.55
2018-09-11T09:08:38.245Z,68.86
2018-09-11T09:11:08.810Z,67.71
2018-09-11T09:13:38.338Z,67.98
2018-09-11T09:16:08.954Z,68.00
2018-09-11T09:18:38.350Z,67.90
2018-09-11T09:21:08.950Z,67.84
2018-09-11T09:23:38.337Z,67.68
2018-09-11T09:26:08.961Z,66.85
2018-09-11T09:28:38.325Z,67.44
2018-09-11T09:31:08.930Z,66.68
2018-09-11T09:33:38.298Z,66.64
2018-09-11T09:36:08.886Z,66.65
2018-09-11T09:38:38.266Z,65.71
2018-09-11T09:41:08.866Z,66.10
2018-09-11T09:43:38.235Z,65.30
2018-09-11T09:46:08.854Z,66.26
2018-09-11T09:48:38.228Z,65.15
2018-09-11T09:51:08.827Z,65.56
2018-09-11T09:53:38.224Z,65.24
2018-09-11T09:56:07.607Z,65.41
2018-09-11T09:58:36.969Z,64.80
2018-09-11T10:01:11.494Z,64.72
2018-09-11T10:03:40.858Z,65.31
2018-09-11T10:06:10.266Z,64.43
2018-09-11T10:08:39.611Z,64.97
2018-09-11T10:11:09.209Z,64.89
2018-09-11T10:13:38.596Z,63.75
2018-09-11T10:16:09.238Z,64.13
2018-09-11T10:18:38.626Z,64.56
2018-09-11T10:21:09.279Z,64.81
2018-09-11T10:23:38.701Z,63.33
2018-09-11T10:26:09.242Z,62.60
2018-09-11T10:28:38.637Z,63.33
2018-09-11T10:31:09.253Z,62.91
2018-09-11T10:33:38.622Z,63.24
2018-09-11T10:36:09.255Z,62.26
2018-09-11T10:38:38.603Z,61.44
2018-09-11T10:41:09.363Z,59.77
2018-09-11T10:43:38.715Z,60.92
2018-09-11T10:46:09.371Z,60.78
2018-09-11T10:48:38.785Z,59.93
2018-09-11T10:51:09.398Z,59.71
2018-09-11T10:53:38.778Z,60.58
2018-09-11T10:56:09.375Z,60.47
2018-09-11T10:58:38.860Z,58.63
2018-09-11T11:01:09.449Z,58.53
2018-09-11T11:03:38.843Z,57.89
2018-09-11T11:06:09.442Z,58.20
2018-09-11T11:08:38.815Z,57.75
2018-09-11T11:11:09.413Z,57.65
2018-09-11T11:13:38.794Z,55.96
2018-09-11T11:16:09.746Z,56.24
2018-09-11T11:18:39.130Z,56.15
2018-09-11T11:21:09.466Z,56.28
2018-09-11T11:23:38.834Z,56.11
2018-09-11T11:26:09.434Z,56.75
2018-09-11T11:28:38.798Z,55.77
2018-09-11T11:31:08.183Z,55.11
2018-09-11T11:33:37.580Z,56.32
2018-09-11T11:36:07.038Z,55.26
2018-09-11T11:38:36.358Z,53.86
2018-09-11T11:41:05.934Z,55.11
2018-09-11T11:43:35.311Z,53.99
2018-09-11T11:46:04.710Z,53.17
2018-09-11T11:48:34.090Z,53.76
2018-09-11T11:51:03.614Z,53.01
2018-09-11T11:53:32.975Z,53.36
2018-09-11T11:56:02.423Z,53.42
2018-09-11T11:58:31.774Z,51.44
2018-09-11T12:01:01.135Z,52.22
2018-09-11T12:03:30.532Z,51.32
2018-09-11T12:05:59.906Z,50.72
2018-09-11T12:08:29.434Z,51.14
2018-09-11T12:10:58.850Z,50.12
2018-09-11T12:13:28.394Z,50.60
2018-09-11T12:15:57.709Z,48.67
2018-09-11T12:18:27.091Z,48.48
2018-09-11T12:20:56.462Z,48.38
2018-09-11T12:23:25.911Z,47.00
2018-09-11T12:25:55.302Z,47.59
2018-09-11T12:28:24.880Z,48.17
2018-09-11T12:30:54.528Z,47.92
2018-09-11T12:33:24.200Z,45.38
2018-09-11T12:35:53.925Z,46.45
2018-09-11T12:38:23.531Z,46.99
2018-09-11T12:40:53.127Z,46.29
2018-09-11T12:43:22.705Z,45.09
2018-09-11T12:45:52.348Z,43.64
2018-09-11T12:48:22.339Z,43.90
2018-09-11T12:50:51.724Z,44.86
2018-09-11T12:53:21.330Z,43.71
2018-09-11T12:55:50.998Z,44.22
2018-09-11T12:58:20.591Z,43.10
2018-09-11T13:00:50.212Z,42.24
2018-09-11T13:03:19.803Z,41.33
2018-09-11T13:05:49.448Z,41.52
2018-09-11T13:08:19.052Z,43.75
2018-09-11T13:10:48.565Z,43.05
2018-09-11T13:13:18.169Z,43.82
2018-09-11T13:15:47.826Z,43.14
2018-09-11T13:18:17.481Z,41.95
2018-09-11T13:20:47.077Z,42.78
2018-09-11T13:23:16.751Z,42.69
2018-09-11T13:25:46.446Z,42.34
2018-09-11T13:28:15.989Z,39.43
2018-09-11T13:30:45.630Z,39.14
2018-09-11T13:33:15.222Z,39.41
2018-09-11T13:35:44.875Z,39.56
2018-09-11T13:38:14.474Z,39.12
2018-09-11T13:40:44.228Z,39.13
2018-09-11T13:43:14.092Z,38.53
2018-09-11T13:45:43.985Z,37.31
2018-09-11T13:48:13.668Z,38.25
2018-09-11T13:50:43.294Z,37.71
2018-09-11T13:53:12.876Z,38.09
2018-09-11T13:55:42.552Z,38.34
2018-09-11T13:58:12.152Z,39.45
2018-09-11T14:00:41.910Z,39.24
2018-09-11T14:03:11.578Z,37.70
2018-09-11T14:05:41.303Z,37.08
2018-09-11T14:08:11.047Z,34.70
2018-09-11T14:10:40.667Z,35.44
2018-09-11T14:13:10.297Z,36.78
2018-09-11T14:15:39.953Z,35.20
2018-09-11T14:18:09.717Z,35.80
2018-09-11T14:20:39.579Z,36.74
2018-09-11T14:23:09.284Z,36.84
2018-09-11T14:25:39.086Z,35.61
2018-09-11T14:28:08.679Z,34.48
2018-09-11T14:30:38.357Z,35.40
2018-09-11T14:33:08.092Z,37.26
2018-09-11T14:35:37.811Z,37.65
2018-09-11T14:38:07.470Z,37.87
2018-09-11T14:40:37.278Z,36.52
2018-09-11T14:43:07.154Z,36.25
2018-09-11T14:45:36.742Z,35.79
2018-09-11T14:48:06.821Z,35.80
2018-09-11T14:50:36.401Z,36.38
2018-09-11T14:53:06.036Z,36.47
2018-09-11T14:55:35.661Z,36.18
2018-09-11T14:58:05.006Z,36.27
2018-09-11T15:00:34.387Z,35.02
2018-09-11T15:03:03.749Z,35.95
2018-09-11T15:05:33.118Z,35.62
2018-09-11T15:08:02.566Z,35.18
2018-09-11T15:10:31.905Z,35.62
2018-09-11T15:13:01.306Z,36.53
2018-09-11T15:15:30.690Z,35.98
2018-09-11T15:18:00.070Z,36.18
2018-09-11T15:20:29.511Z,36.40
2018-09-11T15:22:58.883Z,36.04
2018-09-11T15:25:28.237Z,35.41
2018-09-11T15:27:57.598Z,34.73
2018-09-11T15:30:26.987Z,34.69
2018-09-11T15:32:57.374Z,33.89
2018-09-11T15:35:26.782Z,34.24
2018-09-11T15:37:56.136Z,34.05
2018-09-11T15:40:25.512Z,33.00
2018-09-11T15:42:54.882Z,32.48
2018-09-11T15:45:24.290Z,33.08
2018-09-11T15:47:53.642Z,33.02
2018-09-11T15:50:23.021Z,33.44
2018-09-11T15:52:52.470Z,33.36
2018-09-11T15:55:21.831Z,32.96
2018-09-11T15:57:51.191Z,33.80
2018-09-11T16:00:20.576Z,33.02
2018-09-11T16:02:49.941Z,33.90
2018-09-11T16:05:19.306Z,33.89
2018-09-11T16:07:48.722Z,33.49
2018-09-11T16:10:18.082Z,33.83
2018-09-11T16:12:47.450Z,34.63
2018-09-11T16:15:16.872Z,35.49
2018-09-11T16:17:46.238Z,34.28
2018-09-11T16:20:15.606Z,34.40
2018-09-11T16:22:45.011Z,34.66
2018-09-11T16:25:14.371Z,34.27
2018-09-11T16:27:43.795Z,34.14
2018-09-11T16:30:13.291Z,34.40
2018-09-11T16:32:42.598Z,34.17
2018-09-11T16:35:11.959Z,33.95
2018-09-11T16:37:41.334Z,35.16
2018-09-11T16:40:10.790Z,33.98
2018-09-11T16:42:40.094Z,35.85
2018-09-11T16:45:09.762Z,35.96
2018-09-11T16:47:39.119Z,35.41
2018-09-11T16:50:08.590Z,36.27
2018-09-11T16:52:37.973Z,35.43
2018-09-11T16:55:07.416Z,35.89
2018-09-11T16:57:36.811Z,37.05
2018-09-11T17:00:06.291Z,36.95
2018-09-11T17:02:35.772Z,37.12
2018-09-11T17:05:05.090Z,37.69
2018-09-11T17:07:34.498Z,37.86
2018-09-11T17:10:03.885Z,38.35
2018-09-11T17:12:33.259Z,38.79
2018-09-11T17:15:02.726Z,39.27
2018-09-11T17:17:32.098Z,38.96
2018-09-11T17:20:01.580Z,39.78
2018-09-11T17:22:30.950Z,40.67
2018-09-11T17:25:00.316Z,41.14
2018-09-11T17:27:29.683Z,41.20
2018-09-11T17:29:59.050Z,41.83
2018-09-11T17:32:28.423Z,43.33
2018-09-11T17:34:57.794Z,42.92
2018-09-11T17:37:27.178Z,44.40
2018-09-11T17:39:56.558Z,44.90
2018-09-11T17:42:25.935Z,44.45
2018-09-11T17:44:55.334Z,44.87
2018-09-11T17:47:24.723Z,45.94
2018-09-11T17:49:54.092Z,46.05
2018-09-11T17:52:23.505Z,46.13
2018-09-11T17:54:52.879Z,45.84
2018-09-11T17:57:22.433Z,46.51
2018-09-11T17:59:51.814Z,47.56
2018-09-11T18:02:21.211Z,47.49
2018-09-11T18:04:50.647Z,47.87
2018-09-11T18:07:20.045Z,48.45
2018-09-11T18:09:49.407Z,50.03
2018-09-11T18:12:18.789Z,50.98
2018-09-11T18:14:48.255Z,51.79
2018-09-11T18:17:17.932Z,52.54
2018-09-11T18:19:47.301Z,53.40
2018-09-11T18:22:16.743Z,52.73
2018-09-11T18:24:46.170Z,53.38
2018-09-11T18:27:15.635Z,54.11
2018-09-11T18:29:45.587Z,55.29
2018-09-11T18:32:15.079Z,55.91
2018-09-11T18:34:44.607Z,56.27
2018-09-11T18:37:14.271Z,56.94
2018-09-11T18:39:45.667Z,56.22
2018-09-11T18:42:16.092Z,57.19
2018-09-11T18:44:48.282Z,56.56
2018-09-11T18:47:21.833Z,56.86
2018-09-11T18:49:54.882Z,58.14
2018-09-11T18:52:27.847Z,58.78
2018-09-11T18:55:00.826Z,59.39
2018-09-11T18:57:33.656Z,59.05
2018-09-11T19:00:06.802Z,59.14
2018-09-11T19:02:39.274Z,60.06
2018-09-11T19:05:11.819Z,60.68
2018-09-11T19:07:44.942Z,61.36
2018-09-11T19:10:17.803Z,60.69
2018-09-11T19:12:51.031Z,61.37
2018-09-11T19:15:23.990Z,61.70
2018-09-11T19:17:56.708Z,61.00
2018-09-11T19:20:30.395Z,61.80
2018-09-11T19:23:03.522Z,62.00
2018-09-11T19:25:36.203Z,61.90
2018-09-11T19:28:09.698Z,62.38
2018-09-11T19:30:42.540Z,61.72
2018-09-11T19:33:15.303Z,62.54
2018-09-11T19:35:48.196Z,62.24
2018-09-11T19:38:21.037Z,62.91
2018-09-11T19:40:54.026Z,63.35
2018-09-11T19:43:26.952Z,65.20
2018-09-11T19:45:59.801Z,64.61
2018-09-11T19:48:32.909Z,64.59
2018-09-11T19:51:05.817Z,64.56
2018-09-11T19:53:39.008Z,64.14
2018-09-11T19:56:11.992Z,64.04
2018-09-11T19:58:44.727Z,64.61
2018-09-11T20:01:17.720Z,65.05
2018-09-11T20:03:51.373Z,65.59
2018-09-11T20:06:24.045Z,66.06
2018-09-11T20:08:57.606Z,67.08
2018-09-11T20:11:29.276Z,67.12
2018-09-11T20:14:01.745Z,67.28
2018-09-11T20:16:34.471Z,66.81
2018-09-11T20:19:07.226Z,66.85
2018-09-11T20:21:38.397Z,68.00
2018-09-11T20:24:09.252Z,67.56
2018-09-11T20:26:40.655Z,68.31
2018-09-11T20:29:17.251Z,67.27
2018-09-11T20:31:46.762Z,67.86
2018-09-11T20:34:16.165Z,68.20
2018-09-11T20:36:45.697Z,68.13
2018-09-11T20:39:15.170Z,68.88
2018-09-11T20:41:44.607Z,67.91
2018-09-11T20:44:14.163Z,69.07
2018-09-11T20:46:43.988Z,69.04
2018-09-11T20:49:13.385Z,70.38
2018-09-11T20:51:43.418Z,70.25
2018-09-11T20:54:12.794Z,70.47
2018-09-11T20:56:42.198Z,69.86
2018-09-11T20:59:11.579Z,70.42
2018-09-11T21:01:41.062Z,70.49
2018-09-11T21:04:10.497Z,69.84
2018-09-11T21:06:39.903Z,69.20
2018-09-11T21:09:10.144Z,69.14
2018-09-11T21:11:39.526Z,69.81
2018-09-11T21:14:08.981Z,70.79
2018-09-11T21:16:38.435Z,70.85
2018-09-11T21:19:07.855Z,71.31
2018-09-11T21:21:37.237Z,70.80
2018-09-11T21:24:06.706Z,71.93
2018-09-11T21:26:36.198Z,72.42
2018-09-11T21:29:05.588Z,72.32
2018-09-11T21:31:34.970Z,72.74
2018-09-11T21:34:04.398Z,72.38
2018-09-11T21:36:33.890Z,72.21
2018-09-11T21:39:03.478Z,72.71
2018-09-11T21:41:32.886Z,73.23
2018-09-11T21:44:02.418Z,72.88
2018-09-11T21:46:31.921Z,72.90
2018-09-11T21:49:01.302Z,73.14
2018-09-11T21:51:30.673Z,72.58
2018-09-11T21:54:00.301Z,72.56
2018-09-11T21:56:29.670Z,73.04
2018-09-11T21:58:59.034Z,73.58
2018-09-11T22:25:15.102Z,75.62
2018-09-11T22:27:44.462Z,75.68
2018-09-11T22:30:13.851Z,76.40
2018-09-11T22:32:43.229Z,76.66
2018-09-11T22:35:12.589Z,76.80
2018-09-11T22:37:41.954Z,76.79
2018-09-11T22:40:11.332Z,77.02
2018-09-11T22:42:40.694Z,77.97
2018-09-11T22:45:10.057Z,77.57
2018-09-11T22:47:39.438Z,78.15
2018-09-11T22:50:08.883Z,77.99
2018-09-11T22:52:38.251Z,77.36
2018-09-11T22:55:07.658Z,77.43
2018-09-11T22:57:37.019Z,77.44
2018-09-11T23:00:06.469Z,79.13
2018-09-11T23:02:35.850Z,79.07
2018-09-11T23:05:05.290Z,78.60
2018-09-11T23:07:34.651Z,78.86
2018-09-11T23:10:04.054Z,78.48
2018-09-11T23:12:33.422Z,78.84
2018-09-11T23:15:02.798Z,78.82
2018-09-11T23:17:32.207Z,79.25
2018-09-11T23:20:01.599Z,79.34
2018-09-11T23:22:30.959Z,79.86
2018-09-11T23:25:00.342Z,79.31
2018-09-11T23:27:29.739Z,80.08
2018-09-11T23:29:59.094Z,80.33
2018-09-11T23:32:28.475Z,79.38
2018-09-11T23:34:57.846Z,80.24
2018-09-11T23:37:27.230Z,80.56
2018-09-11T23:39:56.618Z,79.87
2018-09-11T23:42:26.026Z,80.40
2018-09-11T23:44:55.403Z,79.53
2018-09-11T23:47:24.787Z,80.16
2018-09-11T23:49:54.250Z,80.04
2018-09-11T23:52:23.621Z,79.89
2018-09-11T23:54:53.012Z,80.49
2018-09-11T23:57:22.382Z,80.33
2018-09-11T23:59:51.746Z,80.47
